sensor_id;sensor_type;location;lat;lon;timestamp;temperature;humidity
5560;DHT22;2803;47.916;8.074;2023-05-10T00:00:28;14.00;99.90
5560;DHT22;2803;47.916;8.074;2023-05-10T00:03:10;14.50;99.90
5560;DHT22;2803;47.916;8.074;2023-05-10T00:05:36;14.00;99.90
5560;DHT22;2803;47.916;8.074;2023-05-10T00:08:04;14.10;99.90
5560;DHT22;2803;47.916;8.074;2023-05-10T00:10:46;14.30;99.90
5560;DHT22;2803;47.916;8.074;2023-05-10T00:13:22;13.90;99.90
5560;DHT22;2803;47.916;8.074;2023-05-10T00:16:17;14.00;99.90
5560;DHT22;2803;47.916;8.074;2023-05-10T00:19:02;14.10;99.90
5560;DHT22;2803;47.916;8.074;2023-05-10T00:21:47;14.10;99.90
5560;DHT22;2803;47.916;8.074;2023-05-10T00:24:30;13.80;99.90
5560;DHT22;2803;47.916;8.074;2023-05-10T00:27:15;13.70;99.90
5560;DHT22;2803;47.916;8.074;2023-05-10T00:29:57;13.60;99.90
5560;DHT22;2803;47.916;8.074;2023-05-10T00:32:42;13.60;99.90
5560;DHT22;2803;47.916;8.074;2023-05-10T00:35:27;13.60;99.90
5560;DHT22;2803;47.916;8.074;2023-05-10T00:38:12;13.80;99.90
5560;DHT22;2803;47.916;8.074;2023-05-10T00:40:59;13.90;99.90
5560;DHT22;2803;47.916;8.074;2023-05-10T00:43:41;13.90;99.90
5560;DHT22;2803;47.916;8.074;2023-05-10T00:46:23;14.00;99.90
5560;DHT22;2803;47.916;8.074;2023-05-10T00:49:08;14.60;99.90
5560;DHT22;2803;47.916;8.074;2023-05-10T00:51:53;14.60;99.90
5560;DHT22;2803;47.916;8.074;2023-05-10T00:54:38;14.70;99.90
5560;DHT22;2803;47.916;8.074;2023-05-10T00:57:24;14.90;99.90
5560;DHT22;2803;47.916;8.074;2023-05-10T01:00:07;14.90;99.90
5560;DHT22;2803;47.916;8.074;2023-05-10T01:02:53;14.90;99.90
5560;DHT22;2803;47.916;8.074;2023-05-10T01:05:35;14.90;99.90
5560;DHT22;2803;47.916;8.074;2023-05-10T01:08:20;14.70;99.90
5560;DHT22;2803;47.916;8.074;2023-05-10T01:11:05;14.90;99.90
5560;DHT22;2803;47.916;8.074;2023-05-10T01:13:55;15.00;99.90
5560;DHT22;2803;47.916;8.074;2023-05-10T01:16:37;14.70;99.90
5560;DHT22;2803;47.916;8.074;2023-05-10T01:19:19;14.90;99.90
5560;DHT22;2803;47.916;8.074;2023-05-10T01:22:11;15.10;99.90
5560;DHT22;2803;47.916;8.074;2023-05-10T01:28:04;15.10;99.90
5560;DHT22;2803;47.916;8.074;2023-05-10T01:30:51;15.40;99.90
5560;DHT22;2803;47.916;8.074;2023-05-10T01:33:36;15.40;99.90
5560;DHT22;2803;47.916;8.074;2023-05-10T01:36:11;15.50;99.90
5560;DHT22;2803;47.916;8.074;2023-05-10T01:39:09;15.40;99.90
5560;DHT22;2803;47.916;8.074;2023-05-10T01:41:51;15.50;99.90
5560;DHT22;2803;47.916;8.074;2023-05-10T01:44:31;15.60;99.90
5560;DHT22;2803;47.916;8.074;2023-05-10T01:47:05;15.60;99.90
5560;DHT22;2803;47.916;8.074;2023-05-10T01:49:50;15.80;99.90
5560;DHT22;2803;47.916;8.074;2023-05-10T01:52:18;15.70;99.90
5560;DHT22;2803;47.916;8.074;2023-05-10T01:54:59;15.90;99.90
5560;DHT22;2803;47.916;8.074;2023-05-10T01:57:40;15.70;99.90
5560;DHT22;2803;47.916;8.074;2023-05-10T02:00:20;15.70;99.90
5560;DHT22;2803;47.916;8.074;2023-05-10T02:03:08;15.80;99.90
5560;DHT22;2803;47.916;8.074;2023-05-10T02:05:53;15.80;99.90
5560;DHT22;2803;47.916;8.074;2023-05-10T02:08:36;15.90;99.90
5560;DHT22;2803;47.916;8.074;2023-05-10T02:11:21;16.00;99.90
5560;DHT22;2803;47.916;8.074;2023-05-10T02:14:05;15.90;99.90
5560;DHT22;2803;47.916;8.074;2023-05-10T02:16:50;15.80;99.90
5560;DHT22;2803;47.916;8.074;2023-05-10T02:19:34;15.80;99.90
5560;DHT22;2803;47.916;8.074;2023-05-10T02:22:19;15.80;99.90
5560;DHT22;2803;47.916;8.074;2023-05-10T02:25:07;15.90;99.90
5560;DHT22;2803;47.916;8.074;2023-05-10T02:27:47;15.90;99.90
5560;DHT22;2803;47.916;8.074;2023-05-10T02:30:33;15.90;99.90
5560;DHT22;2803;47.916;8.074;2023-05-10T02:33:16;15.90;99.90
5560;DHT22;2803;47.916;8.074;2023-05-10T02:36:02;15.90;99.90
5560;DHT22;2803;47.916;8.074;2023-05-10T02:38:46;16.00;99.90
5560;DHT22;2803;47.916;8.074;2023-05-10T02:41:30;15.90;99.90
5560;DHT22;2803;47.916;8.074;2023-05-10T02:44:10;15.80;99.90
5560;DHT22;2803;47.916;8.074;2023-05-10T02:46:56;15.60;99.90
5560;DHT22;2803;47.916;8.074;2023-05-10T02:49:42;15.40;99.90
5560;DHT22;2803;47.916;8.074;2023-05-10T02:52:30;15.50;99.90
5560;DHT22;2803;47.916;8.074;2023-05-10T02:55:15;15.50;99.90
5560;DHT22;2803;47.916;8.074;2023-05-10T02:57:59;15.10;99.90
5560;DHT22;2803;47.916;8.074;2023-05-10T03:00:38;15.20;99.90
5560;DHT22;2803;47.916;8.074;2023-05-10T03:03:24;15.30;99.90
5560;DHT22;2803;47.916;8.074;2023-05-10T03:06:08;15.10;99.90
5560;DHT22;2803;47.916;8.074;2023-05-10T03:08:54;15.00;99.90
5560;DHT22;2803;47.916;8.074;2023-05-10T03:11:47;14.90;99.90
5560;DHT22;2803;47.916;8.074;2023-05-10T03:14:34;15.00;99.90
5560;DHT22;2803;47.916;8.074;2023-05-10T03:17:09;15.00;99.90
5560;DHT22;2803;47.916;8.074;2023-05-10T03:19:53;15.00;99.90
5560;DHT22;2803;47.916;8.074;2023-05-10T03:22:38;14.60;99.90
5560;DHT22;2803;47.916;8.074;2023-05-10T03:25:21;14.40;99.90
5560;DHT22;2803;47.916;8.074;2023-05-10T03:28:05;13.90;99.90
5560;DHT22;2803;47.916;8.074;2023-05-10T03:30:47;14.10;99.90
5560;DHT22;2803;47.916;8.074;2023-05-10T03:33:33;14.30;99.90
5560;DHT22;2803;47.916;8.074;2023-05-10T03:36:15;14.40;99.90
5560;DHT22;2803;47.916;8.074;2023-05-10T03:39:00;14.20;99.90
5560;DHT22;2803;47.916;8.074;2023-05-10T03:41:45;14.30;99.90
5560;DHT22;2803;47.916;8.074;2023-05-10T03:44:31;14.50;99.90
5560;DHT22;2803;47.916;8.074;2023-05-10T03:47:13;14.70;99.90
5560;DHT22;2803;47.916;8.074;2023-05-10T03:49:58;14.70;99.90
5560;DHT22;2803;47.916;8.074;2023-05-10T03:52:43;14.70;99.90
5560;DHT22;2803;47.916;8.074;2023-05-10T03:55:28;14.90;99.90
5560;DHT22;2803;47.916;8.074;2023-05-10T03:58:11;14.90;99.90
5560;DHT22;2803;47.916;8.074;2023-05-10T04:00:57;14.70;99.90
5560;DHT22;2803;47.916;8.074;2023-05-10T04:03:39;14.90;99.90
5560;DHT22;2803;47.916;8.074;2023-05-10T04:06:24;14.90;99.90
5560;DHT22;2803;47.916;8.074;2023-05-10T04:09:09;15.00;99.90
5560;DHT22;2803;47.916;8.074;2023-05-10T04:11:54;15.10;99.90
5560;DHT22;2803;47.916;8.074;2023-05-10T04:14:36;15.20;99.90
5560;DHT22;2803;47.916;8.074;2023-05-10T04:17:22;15.30;99.90
5560;DHT22;2803;47.916;8.074;2023-05-10T04:20:08;15.30;99.90
5560;DHT22;2803;47.916;8.074;2023-05-10T04:22:50;15.30;99.90
5560;DHT22;2803;47.916;8.074;2023-05-10T04:25:35;15.40;99.90
5560;DHT22;2803;47.916;8.074;2023-05-10T04:28:20;15.40;99.90
5560;DHT22;2803;47.916;8.074;2023-05-10T04:31:02;15.40;99.90
5560;DHT22;2803;47.916;8.074;2023-05-10T04:33:48;15.50;99.90
5560;DHT22;2803;47.916;8.074;2023-05-10T04:36:34;15.40;99.90
5560;DHT22;2803;47.916;8.074;2023-05-10T04:39:17;15.60;99.90
5560;DHT22;2803;47.916;8.074;2023-05-10T04:42:03;15.50;99.90
5560;DHT22;2803;47.916;8.074;2023-05-10T04:44:46;15.60;99.90
5560;DHT22;2803;47.916;8.074;2023-05-10T04:47:30;15.60;99.90
5560;DHT22;2803;47.916;8.074;2023-05-10T04:50:17;15.50;99.90
5560;DHT22;2803;47.916;8.074;2023-05-10T04:52:59;15.40;99.90
5560;DHT22;2803;47.916;8.074;2023-05-10T04:55:44;15.40;99.90
5560;DHT22;2803;47.916;8.074;2023-05-10T04:58:26;15.50;99.90
5560;DHT22;2803;47.916;8.074;2023-05-10T05:01:11;15.40;99.90
5560;DHT22;2803;47.916;8.074;2023-05-10T05:03:56;15.40;99.90
5560;DHT22;2803;47.916;8.074;2023-05-10T05:06:43;15.40;99.90
5560;DHT22;2803;47.916;8.074;2023-05-10T05:09:24;15.40;99.90
5560;DHT22;2803;47.916;8.074;2023-05-10T05:12:10;15.40;99.90
5560;DHT22;2803;47.916;8.074;2023-05-10T05:14:54;15.40;99.90
5560;DHT22;2803;47.916;8.074;2023-05-10T05:17:39;15.40;99.90
5560;DHT22;2803;47.916;8.074;2023-05-10T05:20:24;15.40;99.90
5560;DHT22;2803;47.916;8.074;2023-05-10T05:23:10;15.30;99.90
5560;DHT22;2803;47.916;8.074;2023-05-10T05:25:52;15.30;99.90
5560;DHT22;2803;47.916;8.074;2023-05-10T05:28:37;15.40;99.90
5560;DHT22;2803;47.916;8.074;2023-05-10T05:31:22;15.40;99.90
5560;DHT22;2803;47.916;8.074;2023-05-10T05:34:04;15.40;99.90
5560;DHT22;2803;47.916;8.074;2023-05-10T05:36:50;15.60;99.90
5560;DHT22;2803;47.916;8.074;2023-05-10T05:39:37;15.60;99.90
5560;DHT22;2803;47.916;8.074;2023-05-10T05:42:22;15.60;99.90
5560;DHT22;2803;47.916;8.074;2023-05-10T05:45:04;15.60;99.90
5560;DHT22;2803;47.916;8.074;2023-05-10T05:47:46;15.70;99.90
5560;DHT22;2803;47.916;8.074;2023-05-10T05:50:31;15.70;99.90
5560;DHT22;2803;47.916;8.074;2023-05-10T05:53:16;15.60;99.90
5560;DHT22;2803;47.916;8.074;2023-05-10T05:56:02;15.70;99.90
5560;DHT22;2803;47.916;8.074;2023-05-10T05:58:44;15.60;99.90
5560;DHT22;2803;47.916;8.074;2023-05-10T06:01:29;15.50;99.90
5560;DHT22;2803;47.916;8.074;2023-05-10T06:04:14;15.50;99.90
5560;DHT22;2803;47.916;8.074;2023-05-10T06:06:59;15.50;99.90
5560;DHT22;2803;47.916;8.074;2023-05-10T06:09:44;15.70;99.90
5560;DHT22;2803;47.916;8.074;2023-05-10T06:12:27;15.60;99.90
5560;DHT22;2803;47.916;8.074;2023-05-10T06:15:10;15.50;99.90
5560;DHT22;2803;47.916;8.074;2023-05-10T06:17:55;15.60;99.90
5560;DHT22;2803;47.916;8.074;2023-05-10T06:20:41;15.50;99.90
5560;DHT22;2803;47.916;8.074;2023-05-10T06:23:26;15.30;99.90
5560;DHT22;2803;47.916;8.074;2023-05-10T06:26:08;15.50;99.90
5560;DHT22;2803;47.916;8.074;2023-05-10T06:28:54;15.30;99.90
5560;DHT22;2803;47.916;8.074;2023-05-10T06:31:36;14.90;99.90
5560;DHT22;2803;47.916;8.074;2023-05-10T06:34:21;14.90;99.90
5560;DHT22;2803;47.916;8.074;2023-05-10T06:37:06;15.20;99.90
5560;DHT22;2803;47.916;8.074;2023-05-10T06:39:51;15.00;99.90
5560;DHT22;2803;47.916;8.074;2023-05-10T06:42:36;15.20;99.90
5560;DHT22;2803;47.916;8.074;2023-05-10T06:45:20;15.30;99.90
5560;DHT22;2803;47.916;8.074;2023-05-10T06:48:02;15.40;99.90
5560;DHT22;2803;47.916;8.074;2023-05-10T06:50:46;15.60;99.90
5560;DHT22;2803;47.916;8.074;2023-05-10T06:53:13;15.40;99.90
5560;DHT22;2803;47.916;8.074;2023-05-10T06:55:52;15.60;99.90
5560;DHT22;2803;47.916;8.074;2023-05-10T06:58:37;15.70;99.90
5560;DHT22;2803;47.916;8.074;2023-05-10T07:01:20;15.60;99.90
5560;DHT22;2803;47.916;8.074;2023-05-10T07:04:05;15.60;99.90
5560;DHT22;2803;47.916;8.074;2023-05-10T07:06:48;15.40;99.90
5560;DHT22;2803;47.916;8.074;2023-05-10T07:09:33;15.00;99.90
5560;DHT22;2803;47.916;8.074;2023-05-10T07:12:18;15.00;99.90
5560;DHT22;2803;47.916;8.074;2023-05-10T07:15:03;15.00;99.90
5560;DHT22;2803;47.916;8.074;2023-05-10T07:17:46;14.20;99.90
5560;DHT22;2803;47.916;8.074;2023-05-10T07:20:32;14.10;99.90
5560;DHT22;2803;47.916;8.074;2023-05-10T07:23:13;14.40;99.90
5560;DHT22;2803;47.916;8.074;2023-05-10T07:25:59;14.30;99.90
5560;DHT22;2803;47.916;8.074;2023-05-10T07:28:44;14.70;99.90
5560;DHT22;2803;47.916;8.074;2023-05-10T07:31:29;14.10;99.90
5560;DHT22;2803;47.916;8.074;2023-05-10T07:34:15;14.60;99.90
5560;DHT22;2803;47.916;8.074;2023-05-10T07:36:58;14.80;99.90
5560;DHT22;2803;47.916;8.074;2023-05-10T07:39:42;14.60;99.90
5560;DHT22;2803;47.916;8.074;2023-05-10T07:42:27;14.30;99.90
5560;DHT22;2803;47.916;8.074;2023-05-10T07:45:09;14.50;99.90
5560;DHT22;2803;47.916;8.074;2023-05-10T07:47:54;14.30;99.90
5560;DHT22;2803;47.916;8.074;2023-05-10T07:50:41;14.10;99.90
5560;DHT22;2803;47.916;8.074;2023-05-10T07:53:26;14.20;99.90
5560;DHT22;2803;47.916;8.074;2023-05-10T07:56:24;14.70;99.90
5560;DHT22;2803;47.916;8.074;2023-05-10T07:58:53;15.00;99.90
5560;DHT22;2803;47.916;8.074;2023-05-10T08:01:38;14.90;99.90
5560;DHT22;2803;47.916;8.074;2023-05-10T08:04:20;15.10;99.90
5560;DHT22;2803;47.916;8.074;2023-05-10T08:07:06;15.00;99.90
5560;DHT22;2803;47.916;8.074;2023-05-10T08:09:51;14.80;99.90
5560;DHT22;2803;47.916;8.074;2023-05-10T08:12:36;14.80;99.90
5560;DHT22;2803;47.916;8.074;2023-05-10T08:15:18;14.70;99.90
5560;DHT22;2803;47.916;8.074;2023-05-10T08:18:04;14.60;99.90
5560;DHT22;2803;47.916;8.074;2023-05-10T08:20:48;14.60;99.90
5560;DHT22;2803;47.916;8.074;2023-05-10T08:23:34;14.60;99.90
5560;DHT22;2803;47.916;8.074;2023-05-10T08:26:19;14.50;99.90
5560;DHT22;2803;47.916;8.074;2023-05-10T08:29:02;14.80;99.90
5560;DHT22;2803;47.916;8.074;2023-05-10T08:31:47;14.70;99.90
5560;DHT22;2803;47.916;8.074;2023-05-10T08:34:29;15.20;99.90
5560;DHT22;2803;47.916;8.074;2023-05-10T08:37:14;15.40;99.90
5560;DHT22;2803;47.916;8.074;2023-05-10T08:40:01;15.30;99.90
5560;DHT22;2803;47.916;8.074;2023-05-10T08:42:48;15.10;99.90
5560;DHT22;2803;47.916;8.074;2023-05-10T08:45:32;15.50;99.90
5560;DHT22;2803;47.916;8.074;2023-05-10T08:48:15;15.70;99.90
5560;DHT22;2803;47.916;8.074;2023-05-10T08:50:58;16.00;99.90
5560;DHT22;2803;47.916;8.074;2023-05-10T08:53:39;16.00;99.90
5560;DHT22;2803;47.916;8.074;2023-05-10T08:56:26;16.30;99.90
5560;DHT22;2803;47.916;8.074;2023-05-10T08:59:11;16.40;99.90
5560;DHT22;2803;47.916;8.074;2023-05-10T09:01:56;16.50;99.90
5560;DHT22;2803;47.916;8.074;2023-05-10T09:04:39;16.00;99.90
5560;DHT22;2803;47.916;8.074;2023-05-10T09:07:23;16.40;99.90
5560;DHT22;2803;47.916;8.074;2023-05-10T09:10:09;15.80;99.90
5560;DHT22;2803;47.916;8.074;2023-05-10T09:12:56;15.50;99.90
5560;DHT22;2803;47.916;8.074;2023-05-10T09:15:35;15.60;99.90
5560;DHT22;2803;47.916;8.074;2023-05-10T09:18:19;16.40;99.90
5560;DHT22;2803;47.916;8.074;2023-05-10T09:21:05;16.70;99.90
5560;DHT22;2803;47.916;8.074;2023-05-10T09:23:50;16.60;99.90
5560;DHT22;2803;47.916;8.074;2023-05-10T09:26:35;16.70;99.90
5560;DHT22;2803;47.916;8.074;2023-05-10T09:29:18;16.60;99.90
5560;DHT22;2803;47.916;8.074;2023-05-10T09:32:03;16.80;99.90
5560;DHT22;2803;47.916;8.074;2023-05-10T09:34:45;16.70;99.90
5560;DHT22;2803;47.916;8.074;2023-05-10T09:37:31;17.20;99.90
5560;DHT22;2803;47.916;8.074;2023-05-10T09:40:18;17.00;99.90
5560;DHT22;2803;47.916;8.074;2023-05-10T09:43:01;17.30;99.90
5560;DHT22;2803;47.916;8.074;2023-05-10T09:45:48;17.60;99.90
5560;DHT22;2803;47.916;8.074;2023-05-10T09:48:27;17.40;99.90
5560;DHT22;2803;47.916;8.074;2023-05-10T09:51:18;17.20;99.90
5560;DHT22;2803;47.916;8.074;2023-05-10T09:54:09;17.10;99.90
5560;DHT22;2803;47.916;8.074;2023-05-10T09:56:43;16.50;99.90
5560;DHT22;2803;47.916;8.074;2023-05-10T09:59:25;16.40;99.90
5560;DHT22;2803;47.916;8.074;2023-05-10T10:02:12;16.30;99.90
5560;DHT22;2803;47.916;8.074;2023-05-10T10:04:55;16.90;99.90
5560;DHT22;2803;47.916;8.074;2023-05-10T10:07:40;16.80;99.90
5560;DHT22;2803;47.916;8.074;2023-05-10T10:10:23;17.10;99.90
5560;DHT22;2803;47.916;8.074;2023-05-10T10:13:08;17.20;99.90
5560;DHT22;2803;47.916;8.074;2023-05-10T10:15:51;17.20;99.90
5560;DHT22;2803;47.916;8.074;2023-05-10T10:18:38;16.90;99.90
5560;DHT22;2803;47.916;8.074;2023-05-10T10:21:23;16.80;99.90
5560;DHT22;2803;47.916;8.074;2023-05-10T10:24:06;16.50;99.90
5560;DHT22;2803;47.916;8.074;2023-05-10T10:26:52;16.60;99.90
5560;DHT22;2803;47.916;8.074;2023-05-10T10:29:40;17.00;99.90
5560;DHT22;2803;47.916;8.074;2023-05-10T10:32:27;17.10;99.90
5560;DHT22;2803;47.916;8.074;2023-05-10T10:35:06;17.80;99.90
5560;DHT22;2803;47.916;8.074;2023-05-10T10:37:48;17.80;99.90
5560;DHT22;2803;47.916;8.074;2023-05-10T10:40:32;18.20;99.90
5560;DHT22;2803;47.916;8.074;2023-05-10T10:43:22;17.90;99.90
5560;DHT22;2803;47.916;8.074;2023-05-10T10:46:16;17.80;99.90
5560;DHT22;2803;47.916;8.074;2023-05-10T10:48:48;17.10;99.90
5560;DHT22;2803;47.916;8.074;2023-05-10T10:51:30;16.90;99.90
5560;DHT22;2803;47.916;8.074;2023-05-10T10:54:12;17.10;99.90
5560;DHT22;2803;47.916;8.074;2023-05-10T10:59:42;16.90;99.90
5560;DHT22;2803;47.916;8.074;2023-05-10T11:02:47;16.70;99.90
5560;DHT22;2803;47.916;8.074;2023-05-10T11:05:34;16.50;99.90
5560;DHT22;2803;47.916;8.074;2023-05-10T11:08:09;17.20;99.90
5560;DHT22;2803;47.916;8.074;2023-05-10T11:10:49;18.60;99.90
5560;DHT22;2803;47.916;8.074;2023-05-10T11:13:31;19.30;99.90
5560;DHT22;2803;47.916;8.074;2023-05-10T11:16:13;20.30;99.90
5560;DHT22;2803;47.916;8.074;2023-05-10T11:18:56;21.00;99.90
5560;DHT22;2803;47.916;8.074;2023-05-10T11:21:45;20.70;98.30
5560;DHT22;2803;47.916;8.074;2023-05-10T11:24:23;20.50;99.50
5560;DHT22;2803;47.916;8.074;2023-05-10T11:27:05;20.80;99.00
5560;DHT22;2803;47.916;8.074;2023-05-10T11:29:51;21.50;97.90
5560;DHT22;2803;47.916;8.074;2023-05-10T11:32:37;21.50;98.20
5560;DHT22;2803;47.916;8.074;2023-05-10T11:35:19;20.70;97.20
5560;DHT22;2803;47.916;8.074;2023-05-10T11:37:48;19.60;97.80
5560;DHT22;2803;47.916;8.074;2023-05-10T11:40:22;19.50;98.20
5560;DHT22;2803;47.916;8.074;2023-05-10T11:42:50;19.60;98.20
5560;DHT22;2803;47.916;8.074;2023-05-10T11:45:16;19.50;98.60
5560;DHT22;2803;47.916;8.074;2023-05-10T11:47:59;19.70;97.70
5560;DHT22;2803;47.916;8.074;2023-05-10T11:50:44;19.20;97.90
5560;DHT22;2803;47.916;8.074;2023-05-10T11:53:27;19.30;97.40
5560;DHT22;2803;47.916;8.074;2023-05-10T11:56:13;19.20;98.50
5560;DHT22;2803;47.916;8.074;2023-05-10T11:58:56;18.80;98.30
5560;DHT22;2803;47.916;8.074;2023-05-10T12:01:38;18.00;99.90
5560;DHT22;2803;47.916;8.074;2023-05-10T12:04:24;18.30;99.90
5560;DHT22;2803;47.916;8.074;2023-05-10T12:07:09;18.70;99.90
5560;DHT22;2803;47.916;8.074;2023-05-10T12:10:09;18.40;99.90
5560;DHT22;2803;47.916;8.074;2023-05-10T12:12:39;18.60;99.90
5560;DHT22;2803;47.916;8.074;2023-05-10T12:15:23;18.80;99.90
5560;DHT22;2803;47.916;8.074;2023-05-10T12:18:09;19.40;99.90
5560;DHT22;2803;47.916;8.074;2023-05-10T12:20:51;19.60;98.40
5560;DHT22;2803;47.916;8.074;2023-05-10T12:23:34;20.40;99.00
5560;DHT22;2803;47.916;8.074;2023-05-10T12:26:21;19.80;99.10
5560;DHT22;2803;47.916;8.074;2023-05-10T12:29:20;18.90;99.00
5560;DHT22;2803;47.916;8.074;2023-05-10T12:31:51;18.30;99.90
5560;DHT22;2803;47.916;8.074;2023-05-10T12:34:35;17.90;99.90
5560;DHT22;2803;47.916;8.074;2023-05-10T12:37:23;17.70;99.90
5560;DHT22;2803;47.916;8.074;2023-05-10T12:40:03;18.40;99.90
5560;DHT22;2803;47.916;8.074;2023-05-10T12:42:45;19.30;99.90
5560;DHT22;2803;47.916;8.074;2023-05-10T12:45:31;19.60;99.90
5560;DHT22;2803;47.916;8.074;2023-05-10T12:48:16;20.60;99.90
5560;DHT22;2803;47.916;8.074;2023-05-10T12:50:58;21.10;99.90
5560;DHT22;2803;47.916;8.074;2023-05-10T12:53:43;21.30;98.50
5560;DHT22;2803;47.916;8.074;2023-05-10T12:56:26;21.40;98.20
5560;DHT22;2803;47.916;8.074;2023-05-10T12:59:11;21.20;97.90
5560;DHT22;2803;47.916;8.074;2023-05-10T13:01:57;20.70;96.50
5560;DHT22;2803;47.916;8.074;2023-05-10T13:04:39;19.10;98.20
5560;DHT22;2803;47.916;8.074;2023-05-10T13:07:24;18.30;99.90
5560;DHT22;2803;47.916;8.074;2023-05-10T13:10:09;18.30;99.90
5560;DHT22;2803;47.916;8.074;2023-05-10T13:12:51;17.50;99.90
5560;DHT22;2803;47.916;8.074;2023-05-10T13:15:44;17.50;99.90
5560;DHT22;2803;47.916;8.074;2023-05-10T13:18:24;17.50;99.90
5560;DHT22;2803;47.916;8.074;2023-05-10T13:21:06;17.60;99.90
5560;DHT22;2803;47.916;8.074;2023-05-10T13:23:52;18.40;99.90
5560;DHT22;2803;47.916;8.074;2023-05-10T13:26:34;18.50;99.90
5560;DHT22;2803;47.916;8.074;2023-05-10T13:29:16;18.50;99.90
5560;DHT22;2803;47.916;8.074;2023-05-10T13:32:03;18.10;99.90
5560;DHT22;2803;47.916;8.074;2023-05-10T13:34:49;18.10;99.90
5560;DHT22;2803;47.916;8.074;2023-05-10T13:37:32;18.10;99.90
5560;DHT22;2803;47.916;8.074;2023-05-10T13:40:19;18.40;99.90
5560;DHT22;2803;47.916;8.074;2023-05-10T13:43:01;17.90;99.90
5560;DHT22;2803;47.916;8.074;2023-05-10T13:45:45;17.50;99.90
5560;DHT22;2803;47.916;8.074;2023-05-10T13:48:30;17.60;99.90
5560;DHT22;2803;47.916;8.074;2023-05-10T13:51:14;17.80;99.90
5560;DHT22;2803;47.916;8.074;2023-05-10T13:53:58;17.40;99.90
5560;DHT22;2803;47.916;8.074;2023-05-10T13:56:43;17.30;99.90
5560;DHT22;2803;47.916;8.074;2023-05-10T13:59:28;17.60;99.90
5560;DHT22;2803;47.916;8.074;2023-05-10T14:02:12;17.30;99.90
5560;DHT22;2803;47.916;8.074;2023-05-10T14:04:57;17.40;99.90
5560;DHT22;2803;47.916;8.074;2023-05-10T14:07:43;17.50;99.90
5560;DHT22;2803;47.916;8.074;2023-05-10T14:10:25;17.20;99.90
5560;DHT22;2803;47.916;8.074;2023-05-10T14:13:10;17.40;99.90
5560;DHT22;2803;47.916;8.074;2023-05-10T14:15:55;17.70;99.90
5560;DHT22;2803;47.916;8.074;2023-05-10T14:18:37;18.00;99.90
5560;DHT22;2803;47.916;8.074;2023-05-10T14:21:22;18.20;99.90
5560;DHT22;2803;47.916;8.074;2023-05-10T14:24:08;18.20;99.90
5560;DHT22;2803;47.916;8.074;2023-05-10T14:26:53;17.50;99.90
5560;DHT22;2803;47.916;8.074;2023-05-10T14:29:34;17.20;99.90
5560;DHT22;2803;47.916;8.074;2023-05-10T14:32:19;17.20;99.90
5560;DHT22;2803;47.916;8.074;2023-05-10T14:35:05;16.50;99.90
5560;DHT22;2803;47.916;8.074;2023-05-10T14:37:49;15.50;99.90
5560;DHT22;2803;47.916;8.074;2023-05-10T14:40:35;15.70;99.90
5560;DHT22;2803;47.916;8.074;2023-05-10T14:43:17;15.30;99.90
5560;DHT22;2803;47.916;8.074;2023-05-10T14:46:01;15.00;99.90
5560;DHT22;2803;47.916;8.074;2023-05-10T14:48:46;15.20;99.90
5560;DHT22;2803;47.916;8.074;2023-05-10T14:51:31;15.10;99.90
5560;DHT22;2803;47.916;8.074;2023-05-10T14:54:16;15.30;99.90
5560;DHT22;2803;47.916;8.074;2023-05-10T14:57:00;15.40;99.90
5560;DHT22;2803;47.916;8.074;2023-05-10T14:59:44;15.70;99.90
5560;DHT22;2803;47.916;8.074;2023-05-10T15:02:30;15.70;99.90
5560;DHT22;2803;47.916;8.074;2023-05-10T15:05:12;15.80;99.90
5560;DHT22;2803;47.916;8.074;2023-05-10T15:07:57;16.20;99.90
5560;DHT22;2803;47.916;8.074;2023-05-10T15:10:42;16.40;99.90
5560;DHT22;2803;47.916;8.074;2023-05-10T15:13:28;16.70;99.90
5560;DHT22;2803;47.916;8.074;2023-05-10T15:16:13;16.70;99.90
5560;DHT22;2803;47.916;8.074;2023-05-10T15:18:55;16.50;99.90
5560;DHT22;2803;47.916;8.074;2023-05-10T15:21:39;16.40;99.90
5560;DHT22;2803;47.916;8.074;2023-05-10T15:24:23;16.30;99.90
5560;DHT22;2803;47.916;8.074;2023-05-10T15:27:08;16.50;99.90
5560;DHT22;2803;47.916;8.074;2023-05-10T15:29:52;16.50;99.90
5560;DHT22;2803;47.916;8.074;2023-05-10T15:32:37;16.70;99.90
5560;DHT22;2803;47.916;8.074;2023-05-10T15:35:20;16.90;99.90
5560;DHT22;2803;47.916;8.074;2023-05-10T15:38:05;16.80;99.90
5560;DHT22;2803;47.916;8.074;2023-05-10T15:40:50;17.10;99.90
5560;DHT22;2803;47.916;8.074;2023-05-10T15:43:36;16.70;99.90
5560;DHT22;2803;47.916;8.074;2023-05-10T15:46:19;16.10;99.90
5560;DHT22;2803;47.916;8.074;2023-05-10T15:49:04;15.90;99.90
5560;DHT22;2803;47.916;8.074;2023-05-10T15:51:46;16.00;99.90
5560;DHT22;2803;47.916;8.074;2023-05-10T15:54:32;15.20;99.90
5560;DHT22;2803;47.916;8.074;2023-05-10T15:57:16;15.80;99.90
5560;DHT22;2803;47.916;8.074;2023-05-10T16:00:01;16.10;99.90
5560;DHT22;2803;47.916;8.074;2023-05-10T16:02:46;16.00;99.90
5560;DHT22;2803;47.916;8.074;2023-05-10T16:05:28;16.00;99.90
5560;DHT22;2803;47.916;8.074;2023-05-10T16:08:13;16.20;99.90
5560;DHT22;2803;47.916;8.074;2023-05-10T16:10:58;16.60;99.90
5560;DHT22;2803;47.916;8.074;2023-05-10T16:13:42;16.80;99.90
5560;DHT22;2803;47.916;8.074;2023-05-10T16:16:27;16.60;99.90
5560;DHT22;2803;47.916;8.074;2023-05-10T16:19:14;16.30;99.90
5560;DHT22;2803;47.916;8.074;2023-05-10T16:21:56;16.40;99.90
5560;DHT22;2803;47.916;8.074;2023-05-10T16:24:41;16.10;99.90
5560;DHT22;2803;47.916;8.074;2023-05-10T16:27:25;16.00;99.90
5560;DHT22;2803;47.916;8.074;2023-05-10T16:30:09;15.80;99.90
5560;DHT22;2803;47.916;8.074;2023-05-10T16:32:55;16.00;99.90
5560;DHT22;2803;47.916;8.074;2023-05-10T16:35:41;15.90;99.90
5560;DHT22;2803;47.916;8.074;2023-05-10T16:38:23;15.30;99.90
5560;DHT22;2803;47.916;8.074;2023-05-10T16:41:05;15.50;99.90
5560;DHT22;2803;47.916;8.074;2023-05-10T16:43:50;16.00;99.90
5560;DHT22;2803;47.916;8.074;2023-05-10T16:46:35;16.50;99.90
5560;DHT22;2803;47.916;8.074;2023-05-10T16:49:20;16.60;99.90
5560;DHT22;2803;47.916;8.074;2023-05-10T16:51:48;16.70;99.90
5560;DHT22;2803;47.916;8.074;2023-05-10T16:54:14;16.30;99.90
5560;DHT22;2803;47.916;8.074;2023-05-10T16:56:41;16.10;99.90
5560;DHT22;2803;47.916;8.074;2023-05-10T16:59:08;16.00;99.90
5560;DHT22;2803;47.916;8.074;2023-05-10T17:01:34;15.90;99.90
5560;DHT22;2803;47.916;8.074;2023-05-10T17:04:01;15.30;99.90
5560;DHT22;2803;47.916;8.074;2023-05-10T17:06:28;15.60;99.90
5560;DHT22;2803;47.916;8.074;2023-05-10T17:08:56;15.50;99.90
5560;DHT22;2803;47.916;8.074;2023-05-10T17:11:23;15.40;99.90
5560;DHT22;2803;47.916;8.074;2023-05-10T17:13:50;15.40;99.90
5560;DHT22;2803;47.916;8.074;2023-05-10T17:16:18;15.70;99.90
5560;DHT22;2803;47.916;8.074;2023-05-10T17:18:45;15.30;99.90
5560;DHT22;2803;47.916;8.074;2023-05-10T17:21:12;15.50;99.90
5560;DHT22;2803;47.916;8.074;2023-05-10T17:23:38;15.50;99.90
5560;DHT22;2803;47.916;8.074;2023-05-10T17:26:07;15.60;99.90
5560;DHT22;2803;47.916;8.074;2023-05-10T17:28:34;15.70;99.90
5560;DHT22;2803;47.916;8.074;2023-05-10T17:31:00;15.60;99.90
5560;DHT22;2803;47.916;8.074;2023-05-10T17:33:28;15.30;99.90
5560;DHT22;2803;47.916;8.074;2023-05-10T17:35:55;15.40;99.90
5560;DHT22;2803;47.916;8.074;2023-05-10T17:38:21;15.50;99.90
5560;DHT22;2803;47.916;8.074;2023-05-10T17:40:48;15.70;99.90
5560;DHT22;2803;47.916;8.074;2023-05-10T17:43:16;15.30;99.90
5560;DHT22;2803;47.916;8.074;2023-05-10T17:45:42;15.20;99.90
5560;DHT22;2803;47.916;8.074;2023-05-10T17:48:10;15.20;99.90